Latest Coastal Weather Observations for Croker Island Airport

IDD60701

Issued at 3:41 am CST Thursday 20 June 2024 (issued every 10 minutes, with the page automatically refreshed every 10 minutes)

About coastal observations | Map of coastal stations | Coastal observations for NT | Marine services | Other Formats
Station Details ID: 014308 Name: CROKER ISLAND AIRPORT Lat: -11.16 Lon: 132.48 Height: 9.2 m
Data from the previous 72 hours. | See also: Recent months at Croker Island Airport
Date/Time
CST
Wind Sea
Height
m
Swell Vis
km
Cloud Weather Temp
°C
Press
MSL
hPa
Rain since
9am
mm
Dir  Spd
kts
Gust
kts
Height
m
Period
s
Dir
20/03:30am SE 4 6 - - - - - - - 22.8 1011.7 0.0
20/03:00am SE 3 4 - - - - - - - 22.3 1012.0 0.0
20/02:30am ESE 2 3 - - - - - - - 22.8 1012.2 0.0
20/02:00am ESE 3 3 - - - - - - - 23.2 1012.5 0.0
20/01:30am ESE 3 3 - - - - - - - 22.9 1012.5 0.0
20/01:00am ESE 2 3 - - - - - - - 21.8 1012.6 0.0
20/12:30am ESE 3 4 - - - - - - - 21.5 1012.5 0.0
20/12:00am ENE 2 3 - - - - - - - 21.4 1012.5 0.0
 
Date/Time
CST
Wind Sea
Height
m
Swell Vis
km
Cloud Weather Temp
°C
Press
MSL
hPa
Rain since
9am
mm
Dir  Spd
kts
Gust
kts
Height
m
Period
s
Dir
19/11:30pm ENE 2 3 - - - - - - - 21.3 1012.7 0.0
19/11:00pm NE 2 3 - - - - - - - 21.0 1012.7 0.0
19/10:30pm ENE 2 2 - - - - - - - 21.3 1012.8 0.0
19/10:00pm E 3 4 - - - - - - - 21.8 1012.8 0.0
19/09:30pm E 2 3 - - - - - - - 21.6 1012.7 0.0
19/09:00pm E 2 3 - - - - - - - 22.0 1012.5 0.0
19/08:30pm ENE 3 5 - - - - - - - 23.3 1012.2 0.0
19/08:00pm ENE 3 5 - - - - - - - 23.4 1011.9 0.0
19/07:30pm ENE 3 5 - - - - - - - 23.7 1011.7 0.0
19/07:00pm ENE 4 6 - - - - - - - 24.3 1011.2 0.0
19/06:30pm E 5 7 - - - - - - - 25.2 1010.9 0.0
19/06:00pm E 6 8 - - - - - - - 26.6 1010.7 0.0
19/05:30pm E 8 15 - - - - - - - 27.7 1010.6 0.0
19/05:00pm ESE 8 17 - - - - - - - 28.2 1010.5 0.0
19/04:30pm E 9 14 - - - - - - - 28.6 1010.4 0.0
19/04:00pm E 10 17 - - - - - - - 29.1 1010.5 0.0
19/03:30pm ESE 11 17 - - - - - - - 29.0 1010.8 0.0
19/03:00pm ESE 10 16 - - - - - - - 29.3 1010.8 0.0
19/02:30pm ESE 11 16 - - - - - - - 29.6 1011.1 0.0
19/02:00pm ESE 9 15 - - - - - - - 29.8 1011.6 0.0
19/01:30pm ESE 10 15 - - - - - - - 29.5 1012.1 0.0
19/01:00pm E 8 12 - - - - - - - 29.6 1012.5 0.0
19/12:30pm ESE 7 12 - - - - - - - 29.3 1013.0 0.0
19/12:00pm ESE 7 11 - - - - - - - 28.7 1013.4 0.0
19/11:30am E 7 13 - - - - - - - 28.7 1013.8 0.0
19/11:00am ESE 7 10 - - - - - - - 27.8 1014.1 0.0
19/10:30am ESE 8 13 - - - - - - - 27.2 1014.5 0.0
19/10:00am ESE 8 12 - - - - - - - 26.8 1014.6 0.0
19/09:30am ESE 8 13 - - - - - - - 26.3 1014.7 0.0
19/09:00am ESE 7 14 - - - - - - - 25.0 1014.9 0.0
19/08:30am ESE 6 9 - - - - - - - 23.9 1014.8 0.0
19/08:00am ESE 4 7 - - - - - - - 22.3 1014.5 0.0
19/07:30am SE 4 5 - - - - - - - 20.8 1014.3 0.0
19/07:00am SE 4 4 - - - - - - - 20.4 1014.0 0.0
19/06:30am SE 4 5 - - - - - - - 20.9 1013.8 0.0
19/06:00am SE 4 6 - - - - - - - 21.5 1013.6 0.0
19/05:30am SE 4 5 - - - - - - - 21.8 1013.4 0.0
19/05:00am SE 4 6 - - - - - - - 22.2 1013.3 0.0
19/04:30am SE 4 6 - - - - - - - 21.4 1013.1 0.0
19/04:00am ESE 3 4 - - - - - - - 20.3 1012.9 0.0
19/03:30am E 3 3 - - - - - - - 20.2 1013.0 0.0
19/03:00am ENE 2 3 - - - - - - - 20.2 1013.0 0.0
19/02:30am E 2 2 - - - - - - - 20.5 1013.1 0.0
19/02:00am E 2 3 - - - - - - - 20.1 1013.2 0.0
19/01:30am E 2 3 - - - - - - - 20.1 1013.3 0.0
19/01:00am ENE 2 3 - - - - - - - 20.3 1013.4 0.0
19/12:30am E 2 3 - - - - - - - 20.4 1013.5 0.0
19/12:00am E 3 3 - - - - - - - 20.7 1013.7 0.0
 
Date/Time
CST
Wind Sea
Height
m
Swell Vis
km
Cloud Weather Temp
°C
Press
MSL
hPa
Rain since
9am
mm
Dir  Spd
kts
Gust
kts
Height
m
Period
s
Dir
18/11:30pm ENE 2 3 - - - - - - - 21.3 1013.9 0.0
18/11:00pm ENE 3 4 - - - - - - - 22.4 1013.8 0.0
18/10:30pm ENE 4 6 - - - - - - - 22.8 1013.8 0.0
18/10:00pm ENE 3 5 - - - - - - - 22.8 1013.8 0.0
18/09:30pm ENE 4 5 - - - - - - - 23.1 1013.8 0.0
18/09:00pm ENE 4 7 - - - - - - - 23.1 1013.6 0.0
18/08:30pm ENE 5 7 - - - - - - - 23.1 1013.2 0.0
18/08:00pm ENE 5 8 - - - - - - - 23.0 1012.7 0.0
18/07:30pm ENE 5 7 - - - - - - - 23.0 1012.5 0.0
18/07:00pm ENE 5 7 - - - - - - - 23.3 1012.2 0.0
18/06:30pm ENE 5 9 - - - - - - - 23.9 1011.9 0.0
18/06:00pm ENE 5 10 - - - - - - - 25.1 1011.7 0.0
18/05:30pm E 8 15 - - - - - - - 25.9 1011.6 0.0
18/05:00pm ENE 7 13 - - - - - - - 26.7 1011.4 0.0
18/04:30pm E 8 14 - - - - - - - 27.4 1011.4 0.0
18/04:00pm E 11 17 - - - - - - - 27.3 1011.6 0.0
18/03:30pm ESE 12 17 - - - - - - - 27.5 1011.7 0.0
18/03:00pm ESE 11 18 - - - - - - - 27.1 1011.9 0.0
18/02:30pm ESE 11 18 - - - - - - - 27.2 1012.1 0.0
18/02:00pm ESE 10 18 - - - - - - - 28.1 1012.4 0.0
18/01:30pm E 12 19 - - - - - - - 27.9 1012.9 0.0
18/01:00pm E 11 18 - - - - - - - 28.2 1013.3 0.0
18/12:30pm E 12 19 - - - - - - - 27.2 1013.7 0.0
18/12:00pm ESE 12 19 - - - - - - - 27.6 1014.1 0.0
18/11:30am ESE 11 21 - - - - - - - 27.1 1014.6 0.0
18/11:00am ESE 11 19 - - - - - - - 26.9 1015.0 0.0
18/10:30am E 9 14 - - - - - - - 26.5 1015.1 0.0
18/10:00am ESE 8 12 - - - - - - - 26.2 1015.4 0.0
18/09:30am ESE 7 12 - - - - - - - 25.4 1015.4 0.0
18/09:00am ESE 6 8 - - - - - - - 24.1 1015.3 0.0
18/08:30am ESE 5 9 - - - - - - - 22.8 1015.3 0.0
18/08:00am SE 5 7 - - - - - - - 21.3 1015.0 0.0
18/07:30am SE 4 6 - - - - - - - 19.6 1014.8 0.0
18/07:00am ESE 4 5 - - - - - - - 19.3 1014.4 0.0
18/06:30am ESE 4 6 - - - - - - - 19.2 1014.3 0.0
18/06:00am ESE 3 5 - - - - - - - 19.3 1014.1 0.0
18/05:30am ESE 3 4 - - - - - - - 20.0 1013.9 0.0
18/05:00am SE 4 7 - - - - - - - 20.8 1013.7 0.0
18/04:30am SE 5 7 - - - - - - - 20.8 1013.6 0.0
18/04:00am SE 4 6 - - - - - - - 20.6 1013.5 0.0
18/03:30am SE 4 5 - - - - - - - 20.8 1013.5 0.0
18/03:00am SE 4 5 - - - - - - - 21.0 1013.5 0.0
18/02:30am ESE 3 4 - - - - - - - 20.2 1013.6 0.0
18/02:00am ESE 4 5 - - - - - - - 20.3 1013.9 0.0
18/01:30am E 4 5 - - - - - - - 20.6 1014.2 0.0
18/01:00am E 3 4 - - - - - - - 20.6 1014.4 0.0
18/12:30am E 4 5 - - - - - - - 20.2 1014.6 0.0
18/12:00am ENE 3 4 - - - - - - - 19.9 1014.6 0.0
 
Date/Time
CST
Wind Sea
Height
m
Swell Vis
km
Cloud Weather Temp
°C
Press
MSL
hPa
Rain since
9am
mm
Dir  Spd
kts
Gust
kts
Height
m
Period
s
Dir
17/11:30pm ENE 3 5 - - - - - - - 20.1 1014.6 0.0
17/11:00pm ENE 2 3 - - - - - - - 19.7 1014.6 0.0
17/10:30pm E 2 3 - - - - - - - 19.9 1014.6 0.0
17/10:00pm ENE 2 3 - - - - - - - 20.4 1014.6 0.0
17/09:30pm ENE 3 4 - - - - - - - 21.6 1014.5 0.0
17/09:00pm ENE 3 4 - - - - - - - 22.1 1014.2 0.0
17/08:30pm ENE 4 5 - - - - - - - 22.0 1014.1 0.0
17/08:00pm ENE 4 5 - - - - - - - 22.4 1013.6 0.0
17/07:30pm ENE 4 7 - - - - - - - 23.0 1013.1 0.0
17/07:00pm ENE 5 6 - - - - - - - 23.1 1012.7 0.0
17/06:30pm ENE 4 7 - - - - - - - 24.1 1012.3 0.0
17/06:00pm ENE 6 9 - - - - - - - 25.6 1012.0 0.0
17/05:30pm ENE 7 11 - - - - - - - 26.7 1011.8 0.0
17/05:00pm E 9 16 - - - - - - - 27.4 1011.8 0.0
17/04:30pm ENE 9 14 - - - - - - - 27.8 1011.9 0.0
17/04:00pm E 9 15 - - - - - - - 28.3 1012.1 0.0
17/03:30pm ENE 9 17 - - - - - - - 28.5 1012.1 0.0
17/03:00pm E 9 15 - - - - - - - 28.6 1012.1 0.0
17/02:30pm E 11 19 - - - - - - - 28.9 1012.5 0.0
17/02:00pm E 11 16 - - - - - - - 29.1 1012.7 0.0
17/01:30pm ESE 12 19 - - - - - - - 29.1 1013.1 0.0
17/01:00pm ESE 13 20 - - - - - - - 29.0 1013.6 0.0
17/12:30pm ESE 13 19 - - - - - - - 28.5 1014.0 0.0
17/12:00pm ESE 10 17 - - - - - - - 28.6 1014.6 0.0
17/11:30am ESE 10 17 - - - - - - - 28.2 1014.9 0.0
17/11:00am E 9 15 - - - - - - - 28.2 1015.0 0.0
17/10:30am ESE 8 13 - - - - - - - 27.6 1015.2 0.0
17/10:00am ESE 8 12 - - - - - - - 27.1 1015.3 0.0
17/09:30am ESE 8 14 - - - - - - - 26.3 1015.3 0.0
17/09:00am ESE 6 10 - - - - - - Recent precip. 25.3 1015.4 0.2
17/08:30am E 4 7 - - - - - - - 23.8 1015.2 0.0
17/08:00am E 2 4 - - - - - - - 21.4 1015.0 0.0
17/07:30am E 3 3 - - - - - - - 18.9 1014.8 0.0
17/07:00am E 3 3 - - - - - - - 19.4 1014.7 0.0
17/06:30am E 4 5 - - - - - - - 20.2 1014.4 0.0
17/06:00am ESE 4 6 - - - - - - - 20.5 1014.3 0.0
17/05:30am ESE 3 4 - - - - - - - 20.4 1014.3 0.0
17/05:00am ESE 4 5 - - - - - - - 20.9 1014.1 0.0
17/04:30am ESE 4 6 - - - - - - - 21.8 1013.9 0.0
17/04:00am SE 4 5 - - - - - - - 21.9 1014.0 0.0

Other formats

Comma delimited format used in spreadsheet applications
http://www.bom.gov.au/fwo/IDD60701/IDD60701.94108.axf

JavaScript Object Notation format (JSON) in row-major order
http://www.bom.gov.au/fwo/IDD60701/IDD60701.94108.json

Data quality

Most of these data are generated automatically and are frequently updated. Quality checks on data are not normally performed. It is possible for incorrect values to appear. Refer to information at About Latest Weather Observations and please check the disclaimer before using these data.